Time;durP1;ratioP1;P1;durP2;ratioP2;P2;SDS_P1;SDS_P2;PMS_P1;PMS_P2;Temp;Humidity;BMP_temperature;BMP_pressure;BME280_temperature;BME280_humidity;BME280_pressure;Samples;Min_cycle;Max_cycle;Signal;HPM_P1;HPM_P2
2021/03/02 00:00:22;;;;;;;12.67;7.57;;;0.20;99.90;;;;;;5093095;28;20257;-77
2021/03/02 00:02:49;;;;;;;14.53;8.50;;;0.10;99.90;;;;;;5093078;28;20190;-77
2021/03/02 00:05:15;;;;;;;11.83;7.67;;;0.10;99.90;;;;;;5074942;28;20181;-77
2021/03/02 00:07:42;;;;;;;14.87;8.00;;;0.10;99.90;;;;;;5092870;28;20209;-77
2021/03/02 00:10:12;;;;;;;13.83;8.33;;;0.10;99.90;;;;;;5074872;28;20173;-77
2021/03/02 00:12:40;;;;;;;17.93;9.13;;;0.20;99.90;;;;;;5092999;28;20192;-78
2021/03/02 00:15:08;;;;;;;14.13;9.30;;;0.20;99.90;;;;;;5095273;28;20204;-77
2021/03/02 00:17:36;;;;;;;15.57;8.60;;;0.10;99.90;;;;;;5078426;28;20188;-77
2021/03/02 00:20:14;;;;;;;14.83;8.87;;;0.20;99.90;;;;;;5096645;28;20281;-77
2021/03/02 00:22:49;;;;;;;14.83;8.77;;;0.20;99.90;;;;;;5096352;28;20241;-77
2021/03/02 00:25:16;;;;;;;13.20;8.43;;;0.20;99.90;;;;;;5078373;28;20414;-77
2021/03/02 00:27:41;;;;;;;16.87;8.77;;;0.20;99.90;;;;;;5096217;28;20458;-77
2021/03/02 00:30:08;;;;;;;14.60;8.90;;;0.20;99.90;;;;;;5096674;28;20452;-77
2021/03/02 00:32:34;;;;;;;12.90;8.50;;;0.20;99.90;;;;;;5078072;28;20684;-77
2021/03/02 00:34:59;;;;;;;16.57;8.50;;;0.10;99.90;;;;;;5096396;28;20406;-77
2021/03/02 00:37:25;;;;;;;14.17;8.93;;;-0.10;99.90;;;;;;5078153;28;20262;-77
2021/03/02 00:39:51;;;;;;;14.00;7.97;;;-0.10;99.90;;;;;;5096168;28;20241;-77
2021/03/02 00:42:16;;;;;;;18.60;8.40;;;-0.10;99.90;;;;;;5077982;28;20180;-77
2021/03/02 00:44:42;;;;;;;13.87;8.47;;;0.00;99.90;;;;;;5096250;28;20178;-77
2021/03/02 00:47:08;;;;;;;15.60;9.93;;;0.00;99.90;;;;;;5077923;28;20662;-77
2021/03/02 00:49:34;;;;;;;14.27;9.20;;;0.00;99.90;;;;;;5077908;28;20503;-77
2021/03/02 00:52:00;;;;;;;16.20;9.10;;;0.10;99.90;;;;;;5078071;28;20621;-77
2021/03/02 00:54:26;;;;;;;18.50;9.57;;;-0.10;99.90;;;;;;5096027;28;20505;-77
2021/03/02 00:56:51;;;;;;;16.00;9.70;;;-0.10;99.90;;;;;;5096156;28;20579;-77
2021/03/02 00:59:17;;;;;;;15.77;8.80;;;0.00;99.90;;;;;;5095597;28;20203;-78
2021/03/02 01:01:43;;;;;;;25.03;10.87;;;-0.10;99.90;;;;;;5077692;28;20180;-77
2021/03/02 01:04:08;;;;;;;19.67;10.20;;;0.00;99.90;;;;;;5095865;28;20246;-77
2021/03/02 01:06:34;;;;;;;22.07;10.47;;;0.00;99.90;;;;;;5077298;28;20223;-77
2021/03/02 01:09:06;;;;;;;16.13;9.30;;;0.00;99.90;;;;;;5095429;28;20172;-77
2021/03/02 01:11:32;;;;;;;15.33;9.13;;;0.10;99.90;;;;;;5095633;28;20222;-77
2021/03/02 01:13:57;;;;;;;23.03;11.27;;;0.10;99.90;;;;;;5095702;28;20422;-77
2021/03/02 01:16:23;;;;;;;26.93;10.67;;;0.00;99.90;;;;;;5095557;28;20646;-77
2021/03/02 01:18:49;;;;;;;19.20;10.33;;;0.10;99.90;;;;;;5095242;28;20172;-77
2021/03/02 01:21:15;;;;;;;18.90;10.50;;;0.10;99.90;;;;;;5077451;28;20195;-77
2021/03/02 01:23:40;;;;;;;15.93;9.50;;;0.10;99.90;;;;;;5094906;28;20207;-77
2021/03/02 01:26:06;;;;;;;13.93;8.17;;;0.10;99.90;;;;;;5095387;28;20168;-77
2021/03/02 01:28:31;;;;;;;13.87;9.03;;;0.10;99.90;;;;;;5095058;28;20208;-77
2021/03/02 01:30:57;;;;;;;14.37;8.17;;;0.00;99.90;;;;;;5095385;28;20310;-77
2021/03/02 01:33:23;;;;;;;13.80;8.73;;;0.00;99.90;;;;;;5077272;28;20200;-77
2021/03/02 01:35:48;;;;;;;12.90;8.57;;;-0.10;99.90;;;;;;5095125;28;20176;-77
2021/03/02 01:38:14;;;;;;;15.63;8.43;;;-0.10;99.90;;;;;;5076919;28;20180;-77
2021/03/02 01:40:40;;;;;;;12.77;8.07;;;-0.10;99.90;;;;;;5095113;28;20234;-77
2021/03/02 01:43:05;;;;;;;14.10;8.40;;;-0.10;99.90;;;;;;5094800;28;20192;-77
2021/03/02 01:45:31;;;;;;;13.00;8.07;;;-0.10;99.90;;;;;;5095150;28;20180;-77
2021/03/02 01:47:57;;;;;;;16.07;8.40;;;0.00;99.90;;;;;;5094826;28;20239;-77
2021/03/02 01:50:24;;;;;;;10.23;6.50;;;0.00;99.90;;;;;;5076924;28;20176;-77
2021/03/02 01:52:50;;;;;;;12.23;7.17;;;0.00;99.90;;;;;;5076722;28;20687;-77
2021/03/02 01:55:17;;;;;;;16.73;8.03;;;0.00;99.90;;;;;;5094839;28;20839;-77
2021/03/02 01:57:43;;;;;;;11.33;7.83;;;-0.10;99.90;;;;;;5094507;28;20497;-77
2021/03/02 02:00:21;;;;;;;15.20;7.70;;;-0.10;99.90;;;;;;5094687;28;20494;-77
2021/03/02 02:03:11;;;;;;;16.60;7.03;;;0.00;99.90;;;;;;5094659;28;20198;-77
2021/03/02 02:05:43;;;;;;;10.03;6.97;;;0.00;99.90;;;;;;5094930;28;20398;-77
2021/03/02 02:08:12;;;;;;;11.57;7.47;;;0.00;99.90;;;;;;5076115;28;20501;-77
2021/03/02 02:11:16;;;;;;;12.07;6.97;;;0.00;99.90;;;;;;5094954;28;20432;-77
2021/03/02 02:13:49;;;;;;;12.07;7.10;;;0.00;99.90;;;;;;5070654;28;20460;-77
2021/03/02 02:16:19;;;;;;;12.97;6.50;;;0.00;99.90;;;;;;5094685;28;20405;-77
2021/03/02 02:18:47;;;;;;;16.10;7.20;;;-0.10;99.90;;;;;;5094239;28;20760;-77
2021/03/02 02:21:51;;;;;;;11.17;7.57;;;-0.10;99.90;;;;;;5076503;28;20771;-77
2021/03/02 02:24:27;;;;;;;13.47;7.13;;;-0.10;99.90;;;;;;5023524;28;21008;-77
2021/03/02 02:26:58;;;;;;;11.60;7.33;;;-0.10;99.90;;;;;;5094218;28;20513;-77
2021/03/02 02:29:31;;;;;;;11.20;6.17;;;-0.10;99.90;;;;;;5076001;28;20410;-77
2021/03/02 02:31:58;;;;;;;9.97;6.57;;;-0.10;99.90;;;;;;5076096;28;20926;-77
2021/03/02 02:34:26;;;;;;;11.90;6.90;;;-0.20;99.90;;;;;;5094314;28;20418;-77
2021/03/02 02:36:53;;;;;;;9.97;6.63;;;-0.20;99.90;;;;;;5093614;28;20485;-77
2021/03/02 02:39:21;;;;;;;11.77;7.10;;;-0.20;99.90;;;;;;5093856;28;20461;-77
2021/03/02 02:41:48;;;;;;;10.77;6.90;;;-0.20;99.90;;;;;;5075917;28;20418;-77
2021/03/02 02:44:15;;;;;;;10.20;6.67;;;-0.30;99.90;;;;;;5076251;28;20438;-77
2021/03/02 02:46:42;;;;;;;11.03;6.23;;;-0.40;99.90;;;;;;5094080;28;20525;-77
2021/03/02 02:49:11;;;;;;;9.10;5.47;;;-0.50;99.90;;;;;;5075551;28;20844;-77
2021/03/02 02:51:38;;;;;;;10.77;6.07;;;-0.60;99.90;;;;;;5094069;28;20827;-77
2021/03/02 02:54:08;;;;;;;7.53;5.67;;;-0.70;99.90;;;;;;5075809;28;20960;-77
2021/03/02 02:56:38;;;;;;;11.23;5.87;;;-0.70;99.90;;;;;;5076107;28;20760;-77
2021/03/02 02:59:06;;;;;;;8.73;5.90;;;-0.70;99.90;;;;;;5093442;28;20411;-77
2021/03/02 03:01:44;;;;;;;9.90;6.37;;;-0.80;99.90;;;;;;5093652;28;20402;-77
2021/03/02 03:04:13;;;;;;;8.43;5.63;;;-0.80;99.90;;;;;;5075525;28;20552;-77
2021/03/02 03:06:42;;;;;;;9.33;5.73;;;-0.80;99.90;;;;;;5093419;28;20468;-77
2021/03/02 03:09:08;;;;;;;9.60;5.97;;;-0.80;99.90;;;;;;5093461;28;20759;-77
2021/03/02 03:11:42;;;;;;;8.47;6.17;;;-0.80;99.90;;;;;;5093718;28;20414;-77
2021/03/02 03:14:11;;;;;;;8.00;5.27;;;-0.80;99.90;;;;;;5093553;28;20184;-77
2021/03/02 03:16:39;;;;;;;11.80;5.87;;;-0.90;99.90;;;;;;5093615;28;20401;-77
2021/03/02 03:19:08;;;;;;;9.13;6.03;;;-0.90;99.90;;;;;;5093673;28;20489;-77
2021/03/02 03:21:36;;;;;;;9.43;5.33;;;-0.90;99.90;;;;;;5093589;28;20485;-77
2021/03/02 03:24:03;;;;;;;8.93;5.73;;;-1.00;99.90;;;;;;5093342;28;20425;-77
2021/03/02 03:26:33;;;;;;;9.97;6.40;;;-1.10;99.90;;;;;;5075395;28;20407;-77
2021/03/02 03:29:01;;;;;;;7.67;4.80;;;-1.10;99.90;;;;;;5075123;28;20457;-77
2021/03/02 03:31:26;;;;;;;8.33;5.40;;;-1.00;99.90;;;;;;5093435;28;20403;-77
2021/03/02 03:33:53;;;;;;;9.57;5.33;;;-1.00;99.90;;;;;;5075282;28;21093;-77
2021/03/02 03:36:20;;;;;;;7.97;5.17;;;-1.00;99.90;;;;;;5075444;28;20176;-77
2021/03/02 03:38:46;;;;;;;7.00;4.60;;;-1.00;99.90;;;;;;5093156;28;20414;-77
2021/03/02 03:41:14;;;;;;;8.53;5.27;;;-1.10;99.90;;;;;;5093823;28;20402;-78
2021/03/02 03:43:40;;;;;;;9.77;5.33;;;-1.00;99.90;;;;;;5075170;28;20196;-77
2021/03/02 03:46:06;;;;;;;10.10;5.23;;;-1.10;99.90;;;;;;5093402;28;20509;-77
2021/03/02 03:48:32;;;;;;;8.37;5.40;;;-1.10;99.90;;;;;;5092968;28;20540;-77
2021/03/02 03:50:58;;;;;;;8.73;5.30;;;-1.00;99.90;;;;;;5097154;28;20179;-77
2021/03/02 03:53:28;;;;;;;10.23;5.50;;;-1.00;99.90;;;;;;5079333;28;20442;-77
2021/03/02 03:55:54;;;;;;;9.70;5.30;;;-1.10;99.90;;;;;;5097435;28;20417;-77
2021/03/02 03:58:24;;;;;;;8.23;5.90;;;-1.10;99.90;;;;;;5079053;28;20426;-77
2021/03/02 04:00:51;;;;;;;12.63;5.70;;;-1.20;99.90;;;;;;5097039;28;20414;-77
2021/03/02 04:03:23;;;;;;;7.37;4.87;;;-1.10;99.90;;;;;;5096842;28;20759;-77
2021/03/02 04:05:49;;;;;;;12.67;6.07;;;-1.20;99.90;;;;;;5097095;28;20442;-77
2021/03/02 04:08:16;;;;;;;9.33;5.90;;;-1.20;99.90;;;;;;5078769;28;20465;-77
2021/03/02 04:10:42;;;;;;;9.50;4.93;;;-1.20;99.90;;;;;;5096959;28;20876;-77
2021/03/02 04:13:10;;;;;;;10.67;5.17;;;-1.20;99.90;;;;;;5078511;28;20430;-77
2021/03/02 04:15:36;;;;;;;7.40;4.80;;;-1.10;99.90;;;;;;5096976;28;20405;-77
2021/03/02 04:18:02;;;;;;;8.07;4.73;;;-1.20;99.90;;;;;;5078407;28;20989;-77
2021/03/02 04:20:28;;;;;;;8.00;5.00;;;-1.20;99.90;;;;;;5096715;28;20437;-77
2021/03/02 04:22:56;;;;;;;6.77;4.70;;;-1.20;99.90;;;;;;5096445;28;20204;-77
2021/03/02 04:25:22;;;;;;;10.03;4.83;;;-1.10;99.90;;;;;;5096558;28;20172;-77
2021/03/02 04:27:47;;;;;;;7.03;4.40;;;-1.10;99.90;;;;;;5096710;28;20556;-77
2021/03/02 04:30:14;;;;;;;8.97;5.00;;;-1.10;99.90;;;;;;5078312;28;20175;-77
2021/03/02 04:32:39;;;;;;;12.67;5.80;;;-1.10;99.90;;;;;;5078322;28;20220;-77
2021/03/02 04:35:06;;;;;;;6.40;4.43;;;-1.10;99.90;;;;;;5096410;28;20789;-77
2021/03/02 04:37:32;;;;;;;11.63;4.83;;;-1.10;99.90;;;;;;5096332;28;20652;-77
2021/03/02 04:39:57;;;;;;;8.53;4.60;;;-1.10;99.90;;;;;;5096233;28;20406;-77
2021/03/02 04:42:23;;;;;;;7.93;4.23;;;-1.10;99.90;;;;;;5077905;28;20213;-77
2021/03/02 04:44:48;;;;;;;8.67;4.57;;;-1.10;99.90;;;;;;5096187;28;20218;-77
2021/03/02 04:47:14;;;;;;;8.07;5.03;;;-1.10;99.90;;;;;;5096030;28;20199;-77
2021/03/02 04:49:40;;;;;;;7.13;4.53;;;-1.10;99.90;;;;;;5077903;28;20176;-77
2021/03/02 04:52:05;;;;;;;10.53;4.63;;;-1.10;99.90;;;;;;5096115;28;20190;-77
2021/03/02 04:54:31;;;;;;;6.33;4.00;;;-1.10;99.90;;;;;;5096042;28;20169;-77
2021/03/02 04:56:56;;;;;;;5.90;4.00;;;-1.10;99.90;;;;;;5096118;28;20251;-77
2021/03/02 04:59:22;;;;;;;7.03;4.47;;;-1.10;99.90;;;;;;5095719;28;20177;-76
2021/03/02 05:01:48;;;;;;;9.93;4.97;;;-1.00;99.90;;;;;;5095801;28;20187;-77
2021/03/02 05:04:13;;;;;;;9.53;4.60;;;-1.00;99.90;;;;;;5077423;28;20200;-77
2021/03/02 05:06:39;;;;;;;6.80;4.07;;;-0.90;99.90;;;;;;5077440;28;20188;-77
2021/03/02 05:09:05;;;;;;;6.63;3.70;;;-0.90;99.90;;;;;;5095614;28;20176;-77
2021/03/02 05:11:31;;;;;;;7.27;3.70;;;-1.00;99.90;;;;;;5095639;28;20175;-77
2021/03/02 05:13:56;;;;;;;5.47;3.73;;;-1.00;99.90;;;;;;5095724;28;20269;-76
2021/03/02 05:16:22;;;;;;;6.00;4.30;;;-1.00;99.90;;;;;;5095711;28;20626;-77
2021/03/02 05:18:47;;;;;;;7.30;3.67;;;-1.00;99.90;;;;;;5077195;28;20184;-77
2021/03/02 05:21:13;;;;;;;5.97;4.10;;;-1.00;99.90;;;;;;5077312;28;20531;-77
2021/03/02 05:23:39;;;;;;;7.10;3.70;;;-1.00;99.90;;;;;;5077243;28;20192;-77
2021/03/02 05:26:04;;;;;;;6.83;4.30;;;-1.00;99.90;;;;;;5095467;28;20255;-76
2021/03/02 05:28:31;;;;;;;7.03;3.77;;;-1.00;99.90;;;;;;5095192;28;20553;-77
2021/03/02 05:30:56;;;;;;;6.37;4.00;;;-1.00;99.90;;;;;;5095452;28;20661;-77
2021/03/02 05:33:22;;;;;;;5.40;3.90;;;-1.00;99.90;;;;;;5095222;28;20426;-77
2021/03/02 05:35:48;;;;;;;6.60;3.63;;;-1.00;99.90;;;;;;5095142;28;20583;-77
2021/03/02 05:38:14;;;;;;;6.10;3.87;;;-1.00;99.90;;;;;;5094938;28;20672;-77
2021/03/02 05:40:40;;;;;;;7.40;3.90;;;-1.00;99.90;;;;;;5095217;28;20177;-77
2021/03/02 05:43:06;;;;;;;7.97;4.40;;;-1.00;99.90;;;;;;5095071;28;20243;-77
2021/03/02 05:45:32;;;;;;;10.07;3.90;;;-1.10;99.90;;;;;;5076983;28;20422;-77
2021/03/02 05:47:59;;;;;;;5.53;3.10;;;-1.10;99.90;;;;;;5094884;28;20417;-77
2021/03/02 05:50:26;;;;;;;3.80;3.13;;;-1.10;99.90;;;;;;5076852;28;20184;-77
2021/03/02 05:52:54;;;;;;;5.27;3.27;;;-1.10;99.90;;;;;;5094889;28;20529;-77
2021/03/02 05:55:21;;;;;;;6.33;3.30;;;-1.10;99.90;;;;;;5076860;28;20500;-77
2021/03/02 05:57:48;;;;;;;5.27;3.20;;;-1.10;99.90;;;;;;5094589;28;20461;-77
2021/03/02 06:00:15;;;;;;;5.13;3.67;;;-1.10;99.90;;;;;;5094758;28;20410;-77
2021/03/02 06:02:41;;;;;;;5.50;3.33;;;-1.10;99.90;;;;;;5094809;28;20422;-77
2021/03/02 06:05:09;;;;;;;7.33;3.43;;;-1.10;99.90;;;;;;5094859;28;21014;-77
2021/03/02 06:07:34;;;;;;;5.67;3.50;;;-1.10;99.90;;;;;;5094435;28;20266;-77
2021/03/02 06:10:00;;;;;;;5.23;3.27;;;-1.10;99.90;;;;;;5094527;28;20423;-77
2021/03/02 06:12:25;;;;;;;4.50;3.30;;;-1.10;99.90;;;;;;5093615;28;20196;-77
2021/03/02 06:15:05;;;;;;;3.50;2.53;;;-1.10;99.90;;;;;;5076035;28;20180;-77
2021/03/02 06:17:34;;;;;;;5.60;3.20;;;-1.10;99.90;;;;;;5075925;28;20208;-77
2021/03/02 06:19:59;;;;;;;5.60;3.57;;;-1.10;99.90;;;;;;5094559;28;20422;-77
2021/03/02 06:22:32;;;;;;;4.60;3.10;;;-1.10;99.90;;;;;;5094226;28;20440;-77
2021/03/02 06:24:58;;;;;;;5.03;3.43;;;-1.00;99.90;;;;;;5094248;28;20541;-77
2021/03/02 06:27:24;;;;;;;5.50;3.67;;;-1.00;99.90;;;;;;5075912;28;20561;-77
2021/03/02 06:30:12;;;;;;;5.70;4.20;;;-0.90;99.90;;;;;;5094262;28;20485;-77
2021/03/02 06:32:44;;;;;;;4.80;3.23;;;-0.90;99.90;;;;;;5075911;28;20215;-77
2021/03/02 06:35:10;;;;;;;8.10;4.00;;;-0.90;99.90;;;;;;5075754;28;20891;-77
2021/03/02 06:37:41;;;;;;;5.30;3.33;;;-0.90;99.90;;;;;;5075774;28;20963;-77
2021/03/02 06:40:08;;;;;;;6.20;3.33;;;-0.90;99.90;;;;;;5094036;28;20406;-77
2021/03/02 06:42:39;;;;;;;9.83;3.90;;;-0.80;99.90;;;;;;5094605;28;20434;-77
2021/03/02 06:45:07;;;;;;;10.47;3.40;;;-0.70;99.90;;;;;;5094209;28;20410;-77
2021/03/02 06:47:43;;;;;;;6.60;3.50;;;-0.60;99.90;;;;;;5075864;28;20495;-78
2021/03/02 06:50:12;;;;;;;5.40;3.10;;;-0.50;99.90;;;;;;5094134;28;20409;-77
2021/03/02 06:52:43;;;;;;;7.73;3.27;;;-0.50;99.90;;;;;;5075803;28;20449;-77
2021/03/02 06:55:23;;;;;;;9.93;3.30;;;-0.40;99.90;;;;;;5094018;28;20496;-77
2021/03/02 06:57:50;;;;;;;5.83;2.70;;;-0.30;99.90;;;;;;5075703;28;20488;-77
2021/03/02 07:00:30;;;;;;;5.67;2.97;;;-0.30;99.90;;;;;;5093818;28;20407;-77
2021/03/02 07:02:56;;;;;;;7.17;3.10;;;-0.20;99.90;;;;;;5075621;28;20851;-77
2021/03/02 07:05:22;;;;;;;7.97;3.07;;;-0.10;99.90;;;;;;5093955;28;20442;-77
2021/03/02 07:07:55;;;;;;;3.03;2.37;;;0.00;99.90;;;;;;5076665;28;20553;-78
2021/03/02 07:10:22;;;;;;;3.40;2.50;;;0.00;99.90;;;;;;5095766;28;20153;-78
2021/03/02 07:12:48;;;;;;;4.17;2.50;;;0.20;99.90;;;;;;5094728;28;20430;-78
2021/03/02 07:15:19;;;;;;;6.53;2.67;;;0.30;99.90;;;;;;5094293;28;20413;-77
2021/03/02 07:17:47;;;;;;;3.70;2.90;;;0.40;99.90;;;;;;5094755;28;20952;-78
2021/03/02 07:20:16;;;;;;;5.17;2.63;;;0.50;99.90;;;;;;5094383;28;20822;-78
2021/03/02 07:22:48;;;;;;;5.10;2.73;;;0.70;99.90;;;;;;5101863;28;20434;-78
2021/03/02 07:25:19;;;;;;;4.67;2.80;;;0.80;99.90;;;;;;5109621;28;20397;-78
2021/03/02 07:27:48;;;;;;;3.43;2.70;;;0.90;99.90;;;;;;5110002;28;20624;-78
2021/03/02 07:30:14;;;;;;;4.40;2.57;;;1.10;99.90;;;;;;5101726;28;20406;-78
2021/03/02 07:32:40;;;;;;;5.10;2.80;;;1.30;99.90;;;;;;5101228;28;20477;-78
2021/03/02 07:35:09;;;;;;;3.27;2.20;;;1.40;99.90;;;;;;5101540;28;20420;-78
2021/03/02 07:37:35;;;;;;;3.73;2.47;;;1.60;99.90;;;;;;5102953;28;20458;-78
2021/03/02 07:40:02;;;;;;;4.07;2.53;;;1.70;99.90;;;;;;5102524;28;20737;-78
2021/03/02 07:42:28;;;;;;;5.37;2.60;;;1.90;99.90;;;;;;5082643;28;20196;-78
2021/03/02 07:45:06;;;;;;;6.13;2.37;;;2.10;99.90;;;;;;5100447;28;20460;-78
2021/03/02 07:47:50;;;;;;;14.17;2.70;;;2.40;99.90;;;;;;5082883;28;20202;-79
2021/03/02 07:50:25;;;;;;;4.23;2.40;;;2.80;99.90;;;;;;5101658;28;20417;-78
2021/03/02 07:53:24;;;;;;;5.60;3.10;;;3.40;99.90;;;;;;5101062;28;20468;-78
2021/03/02 07:56:11;;;;;;;5.83;2.50;;;4.10;99.90;;;;;;5083664;28;20191;-78
2021/03/02 07:58:38;;;;;;;5.30;2.63;;;5.40;99.90;;;;;;5102163;28;20235;-78
2021/03/02 08:01:23;;;;;;;6.17;2.90;;;6.50;99.90;;;;;;5102258;28;20644;-78
2021/03/02 08:03:49;;;;;;;5.33;2.70;;;7.50;99.90;;;;;;5102835;28;20187;-79
2021/03/02 08:06:21;;;;;;;3.77;2.50;;;8.50;97.60;;;;;;5102809;28;20195;-78
2021/03/02 08:08:47;;;;;;;4.70;2.83;;;8.70;93.50;;;;;;5103323;28;20680;-79
2021/03/02 08:11:35;;;;;;;5.33;2.60;;;9.10;92.80;;;;;;5084814;28;20183;-79
2021/03/02 08:14:24;;;;;;;4.83;2.37;;;9.40;90.30;;;;;;5104064;28;20195;-79
2021/03/02 08:17:01;;;;;;;3.37;2.60;;;9.70;84.90;;;;;;5085294;28;20201;-79
2021/03/02 08:19:46;;;;;;;5.87;3.10;;;9.90;81.70;;;;;;5104308;28;20171;-79
2021/03/02 08:22:18;;;;;;;6.70;3.13;;;9.60;79.70;;;;;;5084820;28;20252;-79
2021/03/02 08:24:59;;;;;;;5.50;3.43;;;9.50;82.00;;;;;;5102083;28;20176;-80
2021/03/02 08:27:39;;;;;;;4.87;2.90;;;9.60;80.90;;;;;;5101933;28;20208;-79
2021/03/02 08:30:18;;;;;;;5.20;3.33;;;9.20;80.90;;;;;;5084141;28;20207;-79
2021/03/02 08:32:44;;;;;;;3.57;2.20;;;8.70;81.20;;;;;;5102674;28;20204;-79
2021/03/02 08:35:11;;;;;;;4.53;2.60;;;8.10;80.70;;;;;;5102156;28;20535;-79
2021/03/02 08:37:45;;;;;;;3.40;2.10;;;8.50;80.40;;;;;;5102489;28;20207;-79
2021/03/02 08:40:25;;;;;;;3.20;2.07;;;9.10;78.20;;;;;;5103288;28;20168;-79
2021/03/02 08:43:11;;;;;;;2.57;1.57;;;9.60;75.80;;;;;;5102722;28;20191;-79
2021/03/02 08:45:41;;;;;;;3.30;1.77;;;9.60;69.30;;;;;;5102452;28;20179;-79
2021/03/02 08:48:30;;;;;;;2.60;1.70;;;9.90;70.40;;;;;;5083894;28;20590;-79
2021/03/02 08:51:08;;;;;;;2.83;2.07;;;10.60;71.20;;;;;;5102593;28;20642;-79
2021/03/02 08:53:41;;;;;;;3.70;2.33;;;10.90;68.80;;;;;;5102647;28;20241;-79
2021/03/02 08:56:17;;;;;;;4.93;1.83;;;11.50;65.60;;;;;;5084867;28;20180;-79
2021/03/02 08:58:45;;;;;;;5.20;2.70;;;11.30;61.90;;;;;;5084012;28;20246;-79
2021/03/02 09:01:13;;;;;;;3.60;2.40;;;11.30;63.10;;;;;;5099057;28;20168;-77
2021/03/02 09:03:44;;;;;;;5.40;2.20;;;11.60;63.80;;;;;;5096829;28;20648;-77
2021/03/02 09:06:10;;;;;;;3.73;2.60;;;11.60;65.80;;;;;;5082883;28;20221;-79
2021/03/02 09:08:44;;;;;;;5.37;2.67;;;11.80;61.90;;;;;;5102602;28;20185;-79
2021/03/02 09:11:10;;;;;;;9.23;4.07;;;12.00;62.40;;;;;;5080506;28;20182;-77
2021/03/02 09:13:38;;;;;;;6.47;2.83;;;12.10;61.00;;;;;;5080670;28;20566;-77
2021/03/02 09:16:29;;;;;;;7.77;2.73;;;12.40;61.70;;;;;;5078569;28;20188;-77
2021/03/02 09:18:57;;;;;;;3.80;2.00;;;12.60;59.70;;;;;;5078199;28;20236;-77
2021/03/02 09:21:23;;;;;;;3.43;2.27;;;12.60;56.30;;;;;;5078992;28;20179;-78
2021/03/02 09:23:49;;;;;;;6.77;2.63;;;12.70;54.50;;;;;;5096538;28;20204;-77
2021/03/02 09:26:22;;;;;;;4.40;2.20;;;12.70;55.00;;;;;;5096247;28;20553;-77
2021/03/02 09:28:57;;;;;;;3.03;2.13;;;12.70;56.50;;;;;;5096609;28;20257;-78
2021/03/02 09:31:24;;;;;;;5.37;2.13;;;12.80;55.20;;;;;;5097274;28;20167;-78
2021/03/02 09:33:50;;;;;;;3.33;2.60;;;13.10;56.60;;;;;;5096845;28;20188;-78
2021/03/02 09:36:18;;;;;;;3.30;2.00;;;13.10;54.80;;;;;;5097231;28;20209;-78
2021/03/02 09:38:44;;;;;;;2.63;2.37;;;13.20;54.00;;;;;;5081311;28;20184;-80
2021/03/02 09:41:10;;;;;;;3.77;2.07;;;13.40;54.10;;;;;;5104131;28;20172;-78
2021/03/02 09:43:40;;;;;;;8.43;2.47;;;13.50;54.50;;;;;;5102140;28;20663;-78
2021/03/02 09:46:07;;;;;;;4.33;2.17;;;13.70;52.10;;;;;;5101642;28;20181;-78
2021/03/02 09:48:46;;;;;;;4.30;2.30;;;13.90;51.70;;;;;;5084983;28;20209;-79
2021/03/02 09:51:44;;;;;;;4.43;2.33;;;13.90;52.50;;;;;;5103917;28;20263;-78
2021/03/02 09:54:17;;;;;;;3.27;2.30;;;14.10;50.80;;;;;;5093011;28;20209;-79
2021/03/02 09:56:58;;;;;;;4.50;2.83;;;13.50;50.60;;;;;;5104627;28;20304;-78
2021/03/02 09:59:25;;;;;;;8.03;2.53;;;14.10;54.10;;;;;;5103928;28;20674;-79
2021/03/02 10:01:51;;;;;;;3.20;2.23;;;14.60;54.10;;;;;;5085832;28;20266;-79
2021/03/02 10:04:17;;;;;;;4.33;2.23;;;15.00;50.40;;;;;;5084134;28;20285;-79
2021/03/02 10:06:43;;;;;;;3.10;2.33;;;14.70;48.50;;;;;;5100246;28;20681;-78
2021/03/02 10:09:26;;;;;;;7.67;2.33;;;15.00;53.40;;;;;;5085556;28;20201;-78
2021/03/02 10:12:12;;;;;;;9.70;2.93;;;15.50;48.20;;;;;;5104339;28;20176;-80
2021/03/02 10:14:43;;;;;;;3.20;2.20;;;15.70;50.30;;;;;;5103674;28;20173;-78
2021/03/02 10:17:09;;;;;;;3.33;2.20;;;16.40;49.20;;;;;;5102366;28;20175;-79
2021/03/02 10:19:37;;;;;;;2.33;1.80;;;16.80;48.10;;;;;;5102191;28;20233;-79
2021/03/02 10:22:11;;;;;;;5.40;2.60;;;16.60;44.90;;;;;;5085647;28;20194;-79
2021/03/02 10:24:43;;;;;;;4.47;2.40;;;16.50;45.00;;;;;;5103500;28;20177;-79
2021/03/02 10:27:17;;;;;;;3.70;1.83;;;16.50;47.70;;;;;;5103917;28;20212;-79
2021/03/02 10:29:48;;;;;;;3.90;1.70;;;16.80;45.10;;;;;;5101404;28;20189;-79
2021/03/02 10:32:14;;;;;;;2.00;1.80;;;16.90;45.00;;;;;;5100875;28;20176;-79
2021/03/02 10:34:41;;;;;;;1.77;1.67;;;16.60;43.90;;;;;;5084725;28;20200;-79
2021/03/02 10:37:09;;;;;;;5.80;1.83;;;16.80;45.10;;;;;;5101803;28;20167;-79
2021/03/02 10:39:35;;;;;;;2.67;1.80;;;17.00;44.20;;;;;;5100755;28;20664;-79
2021/03/02 10:42:03;;;;;;;2.50;1.80;;;17.10;42.90;;;;;;5102293;28;20185;-79
2021/03/02 10:44:29;;;;;;;2.33;1.90;;;17.20;46.10;;;;;;5084554;28;20253;-79
2021/03/02 10:46:54;;;;;;;4.03;1.87;;;17.40;44.60;;;;;;5103053;28;20701;-79
2021/03/02 10:49:21;;;;;;;2.60;2.17;;;17.20;43.50;;;;;;5102061;28;20203;-79
2021/03/02 10:51:47;;;;;;;2.87;2.40;;;17.20;46.10;;;;;;5082102;28;20175;-80
2021/03/02 10:54:13;;;;;;;2.40;1.90;;;17.20;44.90;;;;;;5082506;28;20250;-79
2021/03/02 10:56:39;;;;;;;5.40;2.23;;;17.40;46.50;;;;;;5102324;28;20168;-79
2021/03/02 10:59:06;;;;;;;3.13;2.37;;;17.70;45.30;;;;;;5101971;28;20177;-80
2021/03/02 11:01:32;;;;;;;3.10;2.73;;;18.20;45.70;;;;;;5101710;28;20262;-80
2021/03/02 11:03:58;;;;;;;2.63;2.30;;;18.30;44.90;;;;;;5082651;28;20196;-79
2021/03/02 11:06:25;;;;;;;5.80;2.50;;;18.50;47.30;;;;;;5101030;28;20766;-79
2021/03/02 11:08:52;;;;;;;3.23;2.40;;;18.40;44.70;;;;;;5083434;28;20772;-79
2021/03/02 11:11:20;;;;;;;2.93;2.50;;;18.50;45.20;;;;;;5082145;28;20188;-79
2021/03/02 11:13:46;;;;;;;3.63;2.20;;;18.60;43.50;;;;;;5081937;28;20693;-79
2021/03/02 11:16:12;;;;;;;3.10;2.27;;;18.70;44.30;;;;;;5081506;28;20596;-80
2021/03/02 11:18:39;;;;;;;4.93;2.60;;;18.60;43.60;;;;;;5100386;28;20207;-79
2021/03/02 11:21:05;;;;;;;2.60;2.33;;;18.80;44.40;;;;;;5100314;28;20301;-79
2021/03/02 11:23:31;;;;;;;5.03;2.77;;;19.40;43.60;;;;;;5099557;28;20190;-79
2021/03/02 11:25:57;;;;;;;3.73;2.83;;;19.70;45.00;;;;;;5099569;28;20267;-80
2021/03/02 11:28:23;;;;;;;3.07;2.77;;;20.00;45.00;;;;;;5099785;28;20571;-80
2021/03/02 11:30:48;;;;;;;4.37;3.20;;;20.20;47.20;;;;;;5080838;28;20181;-82
2021/03/02 11:33:14;;;;;;;2.90;2.23;;;20.30;46.00;;;;;;5099987;28;20283;-78
2021/03/02 11:35:41;;;;;;;3.40;2.10;;;20.20;43.10;;;;;;5100145;28;20200;-80
2021/03/02 11:38:08;;;;;;;3.03;1.97;;;20.40;38.50;;;;;;5098714;28;20657;-80
2021/03/02 11:40:34;;;;;;;3.47;1.87;;;20.20;40.20;;;;;;5079216;28;20628;-80
2021/03/02 11:43:01;;;;;;;3.33;2.10;;;20.50;40.20;;;;;;5081848;28;20736;-79
2021/03/02 11:45:28;;;;;;;2.70;1.60;;;20.40;40.00;;;;;;5080857;28;20201;-80
2021/03/02 11:47:55;;;;;;;2.57;1.70;;;20.60;36.10;;;;;;5061412;28;20226;-80
2021/03/02 11:50:21;;;;;;;3.73;2.20;;;20.70;35.30;;;;;;5079874;28;20238;-80
2021/03/02 11:52:47;;;;;;;1.70;1.60;;;20.80;39.80;;;;;;5080340;28;20683;-80
2021/03/02 11:55:14;;;;;;;4.17;1.87;;;21.10;36.90;;;;;;5060769;28;20216;-81
2021/03/02 11:57:40;;;;;;;3.57;2.90;;;21.50;36.50;;;;;;5080297;28;20204;-80
2021/03/02 12:00:09;;;;;;;10.60;3.33;;;21.50;42.40;;;;;;5078870;28;20177;-80
2021/03/02 12:02:34;;;;;;;6.73;2.60;;;21.30;45.40;;;;;;5099800;28;20189;-80
2021/03/02 12:05:01;;;;;;;4.37;2.73;;;21.50;41.80;;;;;;5081947;28;20268;-80
2021/03/02 12:07:26;;;;;;;4.83;2.87;;;21.30;40.70;;;;;;5099260;28;20212;-79
2021/03/02 12:09:52;;;;;;;7.70;2.50;;;21.40;43.30;;;;;;5101367;28;20532;-77
2021/03/02 12:12:18;;;;;;;4.93;2.03;;;21.90;41.00;;;;;;5104330;28;20165;-80
2021/03/02 12:14:43;;;;;;;2.67;1.93;;;22.00;37.40;;;;;;5102016;28;20167;-76
2021/03/02 12:17:09;;;;;;;2.93;2.03;;;22.20;36.30;;;;;;5098330;28;20179;-77
2021/03/02 12:19:35;;;;;;;4.63;2.10;;;21.90;36.70;;;;;;5083951;28;20179;-81
2021/03/02 12:22:01;;;;;;;2.63;2.30;;;22.20;37.40;;;;;;5083138;28;20177;-79
2021/03/02 12:24:26;;;;;;;3.13;2.60;;;22.40;35.80;;;;;;5101445;28;20198;-80
2021/03/02 12:26:52;;;;;;;3.10;2.20;;;22.30;37.30;;;;;;5101246;28;20175;-79
2021/03/02 12:29:18;;;;;;;5.53;2.13;;;22.60;35.80;;;;;;5083293;28;20178;-79
2021/03/02 12:31:44;;;;;;;4.07;1.97;;;22.40;36.40;;;;;;5101586;28;20265;-78
2021/03/02 12:34:11;;;;;;;5.33;2.10;;;22.50;36.60;;;;;;5097304;28;20558;-77
2021/03/02 12:36:37;;;;;;;3.40;1.93;;;22.80;35.80;;;;;;5096883;28;20167;-77
2021/03/02 12:39:04;;;;;;;2.50;1.70;;;23.40;35.70;;;;;;5078555;28;20648;-77
2021/03/02 12:41:29;;;;;;;4.00;2.37;;;23.50;32.20;;;;;;5096524;28;20652;-77
2021/03/02 12:43:55;;;;;;;3.33;1.80;;;23.40;36.50;;;;;;5096831;28;20196;-77
2021/03/02 12:46:21;;;;;;;4.17;2.00;;;23.60;33.70;;;;;;5096649;28;20688;-77
2021/03/02 12:48:46;;;;;;;3.07;1.87;;;23.40;31.60;;;;;;5098354;28;20203;-77
2021/03/02 12:51:12;;;;;;;5.00;2.10;;;23.20;33.40;;;;;;5098006;28;20171;-78
2021/03/02 12:53:38;;;;;;;5.20;2.10;;;23.20;32.10;;;;;;5097516;28;20529;-77